Time;durP1;ratioP1;P1;durP2;ratioP2;P2;SDS_P1;SDS_P2;PMS_P1;PMS_P2;Temp;Humidity;BMP_temperature;BMP_pressure;BME280_temperature;BME280_humidity;BME280_pressure;Samples;Min_cycle;Max_cycle;Signal;HPM_P1;HPM_P2
2022/06/30 00:03:22;;;;;;;12.10;7.50;;;;;;;18.30;100.00;100142.63;8383465;28;20139;-64
2022/06/30 00:07:22;;;;;;;10.77;7.57;;;;;;;18.34;100.00;100136.56;8399012;28;20811;-64
2022/06/30 00:11:23;;;;;;;12.77;7.05;;;;;;;18.22;100.00;100143.63;8383120;28;20037;-64
2022/06/30 00:15:23;;;;;;;10.38;6.57;;;;;;;18.11;100.00;100141.44;8382729;28;20127;-64
2022/06/30 00:19:23;;;;;;;10.88;6.53;;;;;;;18.04;100.00;100135.06;8381667;28;20526;-64
2022/06/30 00:23:24;;;;;;;11.40;6.03;;;;;;;17.95;100.00;100125.31;8388658;28;20032;-64
2022/06/30 00:27:25;;;;;;;12.25;6.93;;;;;;;17.73;100.00;100120.91;8388015;28;20435;-64
2022/06/30 00:31:25;;;;;;;11.68;7.03;;;;;;;17.66;100.00;100130.94;8388263;28;20050;-64
2022/06/30 00:35:26;;;;;;;10.07;6.73;;;;;;;17.65;100.00;100118.28;8388402;28;20485;-64
2022/06/30 00:39:26;;;;;;;9.57;6.78;;;;;;;17.78;100.00;100123.88;8387844;28;20279;-64
2022/06/30 00:43:27;;;;;;;7.97;6.32;;;;;;;17.77;100.00;100114.00;8387570;28;20484;-64
2022/06/30 00:47:27;;;;;;;10.48;6.55;;;;;;;17.78;100.00;100118.41;8387498;28;20087;-64
2022/06/30 00:51:28;;;;;;;12.75;6.90;;;;;;;17.72;100.00;100118.34;8387844;28;20068;-64
2022/06/30 00:55:30;;;;;;;12.05;6.53;;;;;;;17.69;100.00;100108.66;8369854;28;20043;-64
2022/06/30 00:59:33;;;;;;;8.38;6.65;;;;;;;17.55;100.00;100101.38;8387689;28;20040;-64
2022/06/30 01:03:34;;;;;;;12.60;7.20;;;;;;;17.56;100.00;100098.44;8381314;28;20048;-64
2022/06/30 01:07:35;;;;;;;11.40;7.15;;;;;;;17.33;100.00;100097.72;8386747;28;20436;-63
2022/06/30 01:12:42;;;;;;;8.43;6.95;;;;;;;17.14;100.00;100097.53;8387380;28;20044;-64
2022/06/30 01:15:55;;;;;;;12.13;7.38;;;;;;;17.01;100.00;100097.38;8380759;28;20058;-63
2022/06/30 01:19:56;;;;;;;13.73;7.57;;;;;;;17.03;100.00;100103.50;8385501;28;20119;-64
2022/06/30 01:23:58;;;;;;;9.30;7.22;;;;;;;17.07;100.00;100107.53;8386949;28;20071;-63
2022/06/30 01:27:58;;;;;;;13.77;7.55;;;;;;;17.17;100.00;100108.09;8384700;28;20029;-63
2022/06/30 01:31:59;;;;;;;13.10;7.85;;;;;;;17.19;100.00;100119.66;8386715;28;20101;-63
2022/06/30 01:35:59;;;;;;;11.57;7.90;;;;;;;17.24;100.00;100109.84;8386840;28;20141;-63
2022/06/30 01:40:00;;;;;;;10.10;7.85;;;;;;;17.36;100.00;100107.47;8386101;28;20090;-63
2022/06/30 01:44:00;;;;;;;11.63;7.40;;;;;;;17.52;100.00;100107.22;8386150;28;20056;-64
2022/06/30 01:48:00;;;;;;;15.53;7.30;;;;;;;17.55;100.00;100106.84;8385755;28;20274;-64
2022/06/30 01:52:01;;;;;;;12.45;6.65;;;;;;;17.54;100.00;100111.44;8386073;28;20843;-63
2022/06/30 01:56:01;;;;;;;10.95;6.57;;;;;;;17.53;100.00;100120.69;8384527;28;20036;-63
2022/06/30 02:00:06;;;;;;;19.58;7.72;;;;;;;17.45;100.00;100114.53;8377992;28;20059;-63
2022/06/30 02:05:07;;;;;;;20.70;7.55;;;;;;;17.33;100.00;100103.19;8379432;28;20381;-63
2022/06/30 02:08:27;;;;;;;10.45;7.63;;;;;;;17.10;100.00;100115.34;8346804;28;20086;-63
2022/06/30 02:12:46;;;;;;;18.17;7.78;;;;;;;16.99;100.00;100110.38;8348204;28;20103;-63
2022/06/30 02:16:46;;;;;;;10.32;6.97;;;;;;;17.00;100.00;100112.06;8355735;28;20405;-63
2022/06/30 02:20:46;;;;;;;10.43;7.27;;;;;;;17.04;100.00;100118.84;8348484;28;20033;-63
2022/06/30 02:24:47;;;;;;;8.93;7.10;;;;;;;17.08;100.00;100120.16;8347012;28;20295;-63
2022/06/30 02:28:47;;;;;;;15.80;6.95;;;;;;;17.03;100.00;100120.75;8349246;28;20051;-63
2022/06/30 02:32:48;;;;;;;11.63;6.93;;;;;;;16.98;100.00;100119.59;8345680;28;20045;-63
2022/06/30 02:36:49;;;;;;;15.75;7.18;;;;;;;16.98;100.00;100119.59;8342449;28;20421;-63
2022/06/30 02:40:49;;;;;;;17.58;7.78;;;;;;;16.91;100.00;100127.72;8343052;28;20148;-63
2022/06/30 02:44:50;;;;;;;11.97;7.13;;;;;;;16.87;100.00;100120.94;8345448;28;20051;-63
2022/06/30 02:48:50;;;;;;;12.07;6.87;;;;;;;17.00;100.00;100125.72;8344859;28;20037;-63
2022/06/30 02:52:50;;;;;;;16.67;6.80;;;;;;;17.00;100.00;100123.00;8340330;28;20287;-63
2022/06/30 02:56:51;;;;;;;12.45;7.93;;;;;;;16.97;100.00;100134.31;8343116;28;20037;-63
2022/06/30 03:00:51;;;;;;;18.73;6.95;;;;;;;16.97;100.00;100116.03;8352785;28;20048;-63
2022/06/30 03:04:52;;;;;;;17.20;7.35;;;;;;;16.88;100.00;100119.06;8344554;28;20130;-63
2022/06/30 03:08:52;;;;;;;9.52;7.07;;;;;;;16.72;100.00;100113.81;8343382;28;20457;-63
2022/06/30 03:12:53;;;;;;;15.50;8.20;;;;;;;16.69;100.00;100119.66;8347743;28;20061;-63
2022/06/30 03:16:54;;;;;;;13.23;8.55;;;;;;;16.77;100.00;100116.84;8347187;28;20428;-63
2022/06/30 03:20:56;;;;;;;18.75;8.02;;;;;;;16.81;100.00;100109.94;8344430;28;20486;-63
2022/06/30 03:24:56;;;;;;;16.02;7.55;;;;;;;16.92;100.00;100112.16;8352502;28;20489;-63
2022/06/30 03:28:57;;;;;;;15.88;7.40;;;;;;;16.89;100.00;100107.09;8343994;28;20608;-64
2022/06/30 03:32:57;;;;;;;14.13;7.28;;;;;;;16.88;100.00;100114.47;8347056;28;20041;-63
2022/06/30 03:36:58;;;;;;;11.93;8.27;;;;;;;16.88;100.00;100108.13;8344296;28;20167;-63
2022/06/30 03:40:58;;;;;;;18.48;8.73;;;;;;;16.91;100.00;100102.28;8342977;28;20090;-63
2022/06/30 03:44:58;;;;;;;15.50;8.25;;;;;;;16.96;100.00;100091.66;8346742;28;20091;-62
2022/06/30 03:48:59;;;;;;;14.27;8.00;;;;;;;16.91;100.00;100102.28;8345666;28;20444;-63
2022/06/30 03:53:00;;;;;;;14.13;9.20;;;;;;;16.91;100.00;100108.63;8341965;28;20264;-64
2022/06/30 03:57:01;;;;;;;18.65;8.68;;;;;;;17.08;100.00;100101.88;8348044;28;20045;-64
2022/06/30 04:01:01;;;;;;;14.93;7.60;;;;;;;17.13;100.00;100104.03;8349849;28;20124;-64
2022/06/30 04:05:03;;;;;;;19.55;9.02;;;;;;;17.28;100.00;100102.97;8353730;28;20037;-64
2022/06/30 04:09:03;;;;;;;12.65;8.38;;;;;;;17.36;100.00;100110.19;8351579;28;20049;-64
2022/06/30 04:13:04;;;;;;;12.90;8.80;;;;;;;17.40;100.00;100104.13;8349233;28;20041;-64
2022/06/30 04:17:04;;;;;;;16.27;7.93;;;;;;;17.45;100.00;100087.19;8346989;28;20125;-64
2022/06/30 04:21:05;;;;;;;16.10;7.95;;;;;;;17.53;100.00;100093.38;8350141;28;20041;-64
2022/06/30 04:25:05;;;;;;;12.75;7.63;;;;;;;17.63;100.00;100095.78;8348251;28;20072;-64
2022/06/30 04:29:06;;;;;;;14.05;7.65;;;;;;;17.71;100.00;100090.16;8349979;28;20094;-64
2022/06/30 04:33:07;;;;;;;14.07;7.87;;;;;;;17.78;100.00;100080.13;8347404;28;20047;-64
2022/06/30 04:37:07;;;;;;;13.30;7.85;;;;;;;18.04;100.00;100079.50;8348153;28;20292;-64
2022/06/30 04:41:23;;;;;;;13.13;7.20;;;;;;;18.20;100.00;100074.56;8348385;28;20053;-64
2022/06/30 04:45:47;;;;;;;12.10;8.73;;;;;;;18.50;100.00;100081.53;8346728;28;20301;-64
2022/06/30 04:49:47;;;;;;;10.65;8.15;;;;;;;18.81;100.00;100078.31;8344756;28;20079;-64
2022/06/30 04:53:48;;;;;;;11.40;7.60;;;;;;;18.97;98.95;100078.78;8344008;28;20269;-64
2022/06/30 04:57:49;;;;;;;13.48;7.20;;;;;;;18.98;98.78;100077.75;8346701;28;20526;-64
2022/06/30 05:01:49;;;;;;;12.70;7.10;;;;;;;19.12;96.98;100078.66;8343196;28;20040;-64
2022/06/30 05:05:50;;;;;;;7.85;6.10;;;;;;;19.27;95.63;100066.47;8345316;28;20079;-64
2022/06/30 05:09:50;;;;;;;10.00;6.30;;;;;;;19.31;95.42;100062.25;8347053;28;20037;-64
2022/06/30 05:13:50;;;;;;;9.80;6.38;;;;;;;19.61;95.89;100070.13;8346172;28;20622;-64
2022/06/30 05:17:51;;;;;;;9.98;6.15;;;;;;;19.66;95.25;100064.84;8345150;28;20049;-64
2022/06/30 05:21:51;;;;;;;9.90;6.00;;;;;;;19.95;95.71;100067.19;8339054;28;20059;-64
2022/06/30 05:26:52;;;;;;;12.57;6.10;;;;;;;19.94;93.33;100071.00;8347785;28;20041;-64
2022/06/30 05:30:15;;;;;;;14.23;5.63;;;;;;;20.10;93.46;100073.31;8347188;28;20359;-64
2022/06/30 05:34:16;;;;;;;12.70;5.50;;;;;;;20.18;93.49;100062.13;8346828;28;20051;-62
2022/06/30 05:38:16;;;;;;;14.77;5.10;;;;;;;20.44;91.72;100067.56;8344056;28;20048;-62
2022/06/30 05:42:17;;;;;;;10.82;4.78;;;;;;;20.42;92.78;100065.03;8347685;28;20302;-62
2022/06/30 05:46:17;;;;;;;10.57;4.63;;;;;;;20.83;91.01;100062.78;8346584;28;20417;-62
2022/06/30 05:50:19;;;;;;;5.00;3.90;;;;;;;20.97;89.08;100063.59;8343896;28;20293;-62
2022/06/30 05:54:20;;;;;;;6.82;4.07;;;;;;;21.21;88.79;100054.59;8349699;28;20371;-62
2022/06/30 05:58:20;;;;;;;7.50;3.70;;;;;;;21.44;87.42;100076.91;8360128;28;20051;-63
2022/06/30 06:02:20;;;;;;;5.07;3.50;;;;;;;21.63;85.90;100075.91;8350308;28;20562;-63
2022/06/30 06:06:21;;;;;;;7.22;3.63;;;;;;;22.10;85.93;100072.59;8350304;28;20278;-63
2022/06/30 06:10:21;;;;;;;11.55;4.40;;;;;;;22.00;86.37;100080.53;8351243;28;20036;-63
2022/06/30 06:14:22;;;;;;;11.50;4.68;;;;;;;22.10;87.71;100077.25;8348748;28;20041;-63
2022/06/30 06:18:22;;;;;;;9.43;4.40;;;;;;;22.27;85.00;100072.84;8344499;28;20523;-64
2022/06/30 06:22:22;;;;;;;9.33;4.43;;;;;;;22.50;85.68;100062.03;8340430;28;20076;-64
2022/06/30 06:26:23;;;;;;;7.78;4.65;;;;;;;22.64;83.55;100069.94;8345991;28;20291;-64
2022/06/30 06:30:23;;;;;;;7.68;4.80;;;;;;;23.00;82.02;100069.91;8345889;28;20037;-64
2022/06/30 06:34:24;;;;;;;9.43;4.73;;;;;;;23.00;80.92;100083.69;8344556;28;20068;-64
2022/06/30 06:38:24;;;;;;;4.97;4.47;;;;;;;23.58;79.81;100083.16;8328295;28;20353;-64
2022/06/30 06:42:24;;;;;;;8.48;4.40;;;;;;;24.14;78.38;100089.06;8343818;28;20060;-64
2022/06/30 06:46:28;;;;;;;7.25;4.07;;;;;;;24.47;75.25;100089.31;8344245;28;20037;-64
2022/06/30 06:50:29;;;;;;;9.10;4.47;;;;;;;24.56;75.78;100088.72;8345464;28;20057;-64
2022/06/30 06:54:29;;;;;;;9.45;4.60;;;;;;;24.82;72.40;100109.50;8337283;28;20106;-63
2022/06/30 06:58:30;;;;;;;5.43;3.58;;;;;;;24.84;74.73;100101.81;8335398;28;20071;-63
2022/06/30 07:02:31;;;;;;;6.72;3.78;;;;;;;25.23;74.48;100106.56;8343713;28;20417;-61
2022/06/30 07:06:33;;;;;;;12.68;4.28;;;;;;;25.27;74.11;100104.97;8345614;28;20125;-61
2022/06/30 07:10:33;;;;;;;8.35;3.65;;;;;;;25.26;73.51;100111.59;8346174;28;20052;-61
2022/06/30 07:14:34;;;;;;;5.35;3.65;;;;;;;25.25;72.25;100120.16;8342105;28;20049;-63
2022/06/30 07:18:34;;;;;;;7.88;3.88;;;;;;;25.28;74.99;100126.00;8340232;28;20044;-62
2022/06/30 07:22:35;;;;;;;5.50;3.63;;;;;;;25.68;74.76;100126.84;8341554;28;20124;-63
2022/06/30 07:26:35;;;;;;;9.10;2.95;;;;;;;25.90;70.29;100125.06;8342712;28;20036;-62
2022/06/30 07:30:36;;;;;;;4.43;3.10;;;;;;;26.34;70.16;100120.56;8348373;28;20064;-63
2022/06/30 07:34:36;;;;;;;5.95;2.90;;;;;;;26.16;67.61;100118.91;8343078;28;20460;-63
2022/06/30 07:38:39;;;;;;;6.63;2.60;;;;;;;26.44;64.49;100116.03;8342211;28;20835;-63
2022/06/30 07:42:39;;;;;;;9.60;2.22;;;;;;;26.51;62.69;100126.97;8344107;28;20059;-63
2022/06/30 07:46:40;;;;;;;4.65;2.40;;;;;;;26.35;64.94;100120.31;8344795;28;20481;-63
2022/06/30 07:50:40;;;;;;;11.15;3.10;;;;;;;26.61;64.42;100122.41;8341721;28;20064;-63
2022/06/30 07:54:40;;;;;;;4.50;2.90;;;;;;;26.51;61.64;100122.25;8342812;28;20425;-63
2022/06/30 07:58:41;;;;;;;4.47;2.33;;;;;;;26.68;62.48;100114.78;8349364;28;20314;-63
2022/06/30 08:02:42;;;;;;;2.83;2.20;;;;;;;26.68;61.51;100123.09;8344999;28;20051;-62
2022/06/30 08:06:42;;;;;;;7.95;2.80;;;;;;;26.90;62.73;100130.63;8348695;28;20045;-62
2022/06/30 08:10:43;;;;;;;5.50;2.30;;;;;;;27.00;61.02;100133.53;8349083;28;20126;-63
2022/06/30 08:14:43;;;;;;;4.37;2.43;;;;;;;26.77;61.94;100121.56;8349801;28;20049;-62
2022/06/30 08:18:44;;;;;;;8.20;3.05;;;;;;;27.13;63.45;100122.03;8344733;28;20291;-62
2022/06/30 08:22:44;;;;;;;5.57;2.53;;;;;;;27.26;61.95;100118.94;8351061;28;20501;-62
2022/06/30 08:26:44;;;;;;;11.52;2.35;;;;;;;27.01;61.17;100115.81;8352609;28;20362;-62
2022/06/30 08:30:46;;;;;;;4.70;2.10;;;;;;;27.31;62.33;100121.75;8350658;28;20029;-62
2022/06/30 08:34:46;;;;;;;5.07;2.13;;;;;;;27.35;63.88;100123.75;8346583;28;20567;-63
2022/06/30 08:38:47;;;;;;;5.53;2.70;;;;;;;27.51;65.92;100122.03;8348006;28;20484;-63
2022/06/30 08:42:47;;;;;;;8.57;2.88;;;;;;;27.50;64.90;100117.56;8348560;28;20825;-62
2022/06/30 08:46:49;;;;;;;7.10;2.65;;;;;;;27.74;63.21;100116.16;8346730;28;20098;-63
2022/06/30 08:50:57;;;;;;;8.70;3.00;;;;;;;27.72;63.32;100110.03;8351553;28;20432;-64
2022/06/30 08:55:00;;;;;;;8.10;3.75;;;;;;;27.59;64.68;100113.19;8344991;28;20045;-63
2022/06/30 08:59:03;;;;;;;8.90;3.50;;;;;;;27.25;64.94;100112.53;8348132;28;20059;-63
2022/06/30 09:03:04;;;;;;;6.90;3.13;;;;;;;27.52;66.09;100112.56;8346135;28;20075;-63
2022/06/30 09:07:05;;;;;;;7.63;2.80;;;;;;;27.41;64.70;100116.34;8344469;28;20069;-63
2022/06/30 09:11:05;;;;;;;6.53;2.83;;;;;;;27.53;65.49;100115.09;8343104;28;20045;-63
2022/06/30 09:15:06;;;;;;;5.55;3.00;;;;;;;28.06;67.74;100115.09;8342453;28;20079;-63
2022/06/30 09:19:07;;;;;;;6.95;3.45;;;;;;;28.10;63.44;100115.44;8349159;28;20406;-63
2022/06/30 09:23:25;;;;;;;9.25;2.30;;;;;;;28.11;65.50;100117.09;8350757;28;20057;-63
2022/06/30 09:27:29;;;;;;;12.50;3.35;;;;;;;27.91;63.14;100116.94;8348726;28;20029;-63
2022/06/30 09:31:34;;;;;;;10.10;2.38;;;;;;;27.73;63.44;100109.78;8344185;28;20045;-63
2022/06/30 09:35:38;;;;;;;9.65;3.00;;;;;;;27.49;63.34;100113.09;8343140;28;20514;-63
2022/06/30 09:39:41;;;;;;;;;;;;;;;27.53;63.06;100117.06;8340070;28;20673;-63
2022/06/30 09:43:42;;;;;;;9.15;2.92;;;;;;;28.13;62.57;100112.13;8337893;28;19925;-63
2022/06/30 09:47:58;;;;;;;5.83;2.40;;;;;;;28.00;62.40;100110.59;8347006;28;20677;-63
2022/06/30 09:52:00;;;;;;;5.88;2.70;;;;;;;28.35;62.47;100118.41;8368743;28;20059;-64
2022/06/30 09:56:16;;;;;;;12.40;2.72;;;;;;;28.51;63.06;100106.34;8348380;28;20572;-64
2022/06/30 10:00:18;;;;;;;7.15;2.75;;;;;;;28.56;60.90;100107.22;8344740;28;20053;-63
2022/06/30 10:04:18;;;;;;;5.35;2.70;;;;;;;28.40;61.67;100105.41;8349198;28;20040;-63
2022/06/30 10:08:19;;;;;;;6.68;2.42;;;;;;;29.34;59.32;100108.22;8346534;28;20082;-64
2022/06/30 10:12:23;;;;;;;6.35;2.60;;;;;;;30.12;57.13;100102.28;8345031;28;20524;-64
2022/06/30 10:16:26;;;;;;;8.75;2.10;;;;;;;31.55;54.46;100111.81;8345466;28;20068;-64
2022/06/30 10:20:28;;;;;;;9.23;2.38;;;;;;;31.53;53.46;100114.09;8348025;28;20040;-64
2022/06/30 10:24:29;;;;;;;8.85;2.15;;;;;;;32.29;52.76;100112.44;8349747;28;20433;-64
2022/06/30 10:28:29;;;;;;;7.45;2.20;;;;;;;31.60;53.83;100109.00;8349519;28;20048;-64
2022/06/30 10:33:03;;;;;;;7.22;1.75;;;;;;;29.86;54.83;100112.59;8339764;28;20509;-64
2022/06/30 10:37:25;;;;;;;5.97;1.98;;;;;;;30.88;53.44;100108.69;8344786;28;20075;-64
2022/06/30 10:41:26;;;;;;;7.33;1.90;;;;;;;30.78;52.72;100111.50;8349708;28;20083;-64
2022/06/30 10:49:52;;;;;;;7.90;2.00;;;;;;;33.69;51.20;100115.72;8387945;27;19924;-64
2022/06/30 10:53:55;;;;;;;5.70;2.22;;;;;;;32.43;50.17;100109.84;8378450;28;20406;-64
2022/06/30 10:58:03;;;;;;;6.80;2.92;;;;;;;32.86;53.24;100106.94;8400474;27;20064;-64
2022/06/30 11:02:22;;;;;;;14.55;3.15;;;;;;;31.84;54.78;100093.22;8390750;27;20045;-64
2022/06/30 11:06:26;;;;;;;13.63;3.30;;;;;;;31.67;54.23;100089.94;8381317;27;20048;-64
2022/06/30 11:10:27;;;;;;;11.10;2.97;;;;;;;31.21;55.96;100088.47;8370821;28;20048;-64
2022/06/30 11:14:27;;;;;;;8.70;2.70;;;;;;;31.79;55.92;100094.06;8370869;27;20039;-64
2022/06/30 11:18:28;;;;;;;7.27;3.60;;;;;;;31.66;54.95;100096.66;8383808;27;20036;-64
2022/06/30 11:22:29;;;;;;;11.70;3.53;;;;;;;31.96;56.81;100091.72;8377309;27;20787;-64
2022/06/30 11:27:31;;;;;;;14.07;3.22;;;;;;;32.37;52.26;100081.06;8377477;27;20299;-64
2022/06/30 11:30:51;;;;;;;13.85;2.70;;;;;;;33.09;50.43;100071.66;8379961;27;20411;-64
2022/06/30 11:34:54;;;;;;;11.05;3.05;;;;;;;33.41;53.18;100075.47;8393903;27;20527;-64
2022/06/30 11:38:57;;;;;;;12.32;3.42;;;;;;;32.93;51.06;100059.78;8392312;27;20067;-64
2022/06/30 11:42:57;;;;;;;10.87;3.00;;;;;;;33.69;50.74;100060.47;8373499;28;20036;-64
2022/06/30 11:47:16;;;;;;;9.27;3.03;;;;;;;33.61;50.54;100054.72;8383658;27;20081;-64
2022/06/30 11:51:16;;;;;;;8.23;3.78;;;;;;;33.02;50.96;100043.97;8387900;27;20275;-64
2022/06/30 11:55:17;;;;;;;7.85;2.95;;;;;;;33.10;49.73;100046.13;8384495;27;20047;-64
2022/06/30 11:59:18;;;;;;;8.82;3.30;;;;;;;33.71;51.22;100061.00;8377793;28;20075;-64
2022/06/30 12:03:18;;;;;;;11.13;3.17;;;;;;;33.51;48.30;100052.06;8367195;28;20041;-64
2022/06/30 12:07:19;;;;;;;6.00;2.63;;;;;;;34.16;49.84;100036.19;8364924;28;20036;-64
2022/06/30 12:11:19;;;;;;;5.45;2.90;;;;;;;33.27;51.71;100032.44;8369957;28;20033;-64
2022/06/30 12:15:20;;;;;;;10.43;3.40;;;;;;;32.20;50.96;100013.50;8363030;28;20471;-64
2022/06/30 12:19:21;;;;;;;6.70;3.10;;;;;;;30.08;55.52;100006.34;8364575;28;20377;-64
2022/06/30 12:23:21;;;;;;;8.30;3.03;;;;;;;30.29;56.98;100003.31;8364649;28;20408;-62
2022/06/30 12:27:32;;;;;;;10.52;3.10;;;;;;;29.31;56.42;100000.16;8374415;28;20048;-63
2022/06/30 12:31:33;;;;;;;12.50;2.90;;;;;;;29.29;56.74;99997.63;8366726;28;20102;-62
2022/06/30 12:35:36;;;;;;;6.90;2.53;;;;;;;29.76;58.17;99986.31;8361492;28;20413;-63
2022/06/30 12:39:43;;;;;;;8.65;3.08;;;;;;;29.73;58.29;99984.06;8362352;28;20033;-63
2022/06/30 12:43:47;;;;;;;10.05;2.35;;;;;;;30.04;58.69;99966.22;8370815;28;20432;-62
2022/06/30 12:47:47;;;;;;;5.75;2.15;;;;;;;29.43;57.71;99965.31;8360155;28;20041;-62
2022/06/30 12:51:48;;;;;;;6.27;3.00;;;;;;;29.42;56.44;99963.66;8366798;28;20041;-63
2022/06/30 12:56:08;;;;;;;7.53;2.70;;;;;;;29.98;59.13;99951.41;8359132;28;20064;-63
2022/06/30 13:00:09;;;;;;;9.43;3.65;;;;;;;29.53;57.03;99937.50;8364184;28;20325;-63
2022/06/30 13:04:20;;;;;;;7.68;3.58;;;;;;;29.20;57.36;99920.44;8371244;28;20048;-63
2022/06/30 13:08:20;;;;;;;7.72;3.03;;;;;;;29.42;56.72;99919.09;8370208;28;20479;-63
2022/06/30 13:12:21;;;;;;;4.72;3.03;;;;;;;29.72;56.01;99924.69;8367871;28;20032;-64
2022/06/30 13:16:22;;;;;;;9.87;3.07;;;;;;;29.74;55.66;99916.06;8383518;28;20116;-63
2022/06/30 13:20:23;;;;;;;10.25;3.67;;;;;;;29.87;54.89;99910.75;8379998;28;20326;-62
2022/06/30 13:24:24;;;;;;;6.47;2.90;;;;;;;29.82;54.22;99909.94;8380643;28;20051;-63
2022/06/30 13:28:24;;;;;;;6.03;2.55;;;;;;;30.02;55.13;99902.34;8381415;28;20083;-64
2022/06/30 13:32:25;;;;;;;5.90;2.80;;;;;;;29.97;54.58;99899.56;8375635;28;20043;-63
2022/06/30 13:36:27;;;;;;;5.90;2.90;;;;;;;30.04;54.75;99885.34;8373068;28;20043;-63
2022/06/30 13:40:28;;;;;;;7.22;2.85;;;;;;;29.99;54.18;99880.59;8377191;28;20041;-64
2022/06/30 13:44:28;;;;;;;5.40;2.90;;;;;;;29.72;53.78;99891.25;8377008;28;20044;-63
2022/06/30 13:48:29;;;;;;;5.97;2.40;;;;;;;29.93;54.41;99881.75;8377496;28;20302;-63
2022/06/30 13:52:29;;;;;;;9.82;3.45;;;;;;;30.16;54.90;99875.53;8380350;28;20071;-63
2022/06/30 13:56:30;;;;;;;6.67;3.13;;;;;;;29.88;53.33;99873.38;8375318;28;20500;-63
2022/06/30 14:00:30;;;;;;;5.35;2.75;;;;;;;29.88;53.51;99865.00;8376601;28;20037;-63
2022/06/30 14:04:31;;;;;;;5.53;3.00;;;;;;;29.90;53.33;99859.16;8384593;28;20041;-63
2022/06/30 14:08:32;;;;;;;5.87;2.87;;;;;;;30.41;52.77;99855.91;8383933;28;20048;-63
2022/06/30 14:12:33;;;;;;;5.07;2.78;;;;;;;30.73;52.58;99851.88;8387782;28;20771;-64
2022/06/30 14:16:34;;;;;;;4.40;2.60;;;;;;;30.36;52.57;99844.81;8381795;28;20472;-64
2022/06/30 14:20:34;;;;;;;6.65;3.10;;;;;;;30.29;53.10;99830.34;8382707;28;20039;-64
2022/06/30 14:24:35;;;;;;;6.25;3.25;;;;;;;30.14;53.68;99823.94;8380149;28;20040;-64
2022/06/30 14:28:35;;;;;;;4.60;2.67;;;;;;;30.20;54.91;99826.47;8379677;28;20095;-64
2022/06/30 14:32:36;;;;;;;6.90;3.15;;;;;;;30.30;53.66;99826.41;8376059;28;20036;-64
2022/06/30 14:36:37;;;;;;;9.30;2.95;;;;;;;30.42;53.03;99812.97;8378425;28;20036;-64
2022/06/30 14:40:37;;;;;;;5.72;2.70;;;;;;;30.49;53.30;99817.41;8363114;28;20040;-64
2022/06/30 14:44:38;;;;;;;8.57;3.00;;;;;;;30.38;54.27;99806.28;8355910;28;20235;-64
2022/06/30 14:48:38;;;;;;;6.93;3.10;;;;;;;30.21;52.18;99794.66;8352566;28;20037;-64
2022/06/30 14:52:40;;;;;;;4.07;2.80;;;;;;;30.44;52.65;99796.75;8353816;28;20036;-64
2022/06/30 14:56:40;;;;;;;5.78;3.35;;;;;;;30.43;54.00;99783.94;8351934;28;20112;-64
2022/06/30 15:00:40;;;;;;;5.28;2.80;;;;;;;30.50;52.95;99774.41;8371828;28;20036;-64
2022/06/30 15:04:41;;;;;;;9.00;3.75;;;;;;;30.46;52.94;99764.97;8369967;28;20047;-64
2022/06/30 15:08:41;;;;;;;6.30;2.95;;;;;;;30.25;53.79;99744.72;8378783;28;20358;-64
2022/06/30 15:12:42;;;;;;;5.63;2.70;;;;;;;30.02;53.49;99735.03;8365249;28;20053;-64
2022/06/30 15:16:42;;;;;;;4.47;2.58;;;;;;;30.04;55.14;99726.38;8371544;28;20041;-64
2022/06/30 15:24:04;;;;;;;8.63;3.00;;;;;;;30.03;55.39;99733.91;8372425;28;20090;-64
2022/06/30 15:25:06;;;;;;;6.80;2.92;;;;;;;29.88;57.43;99721.97;8346167;28;20106;-64
2022/06/30 15:29:08;;;;;;;7.97;3.78;;;;;;;29.59;59.02;99730.16;8350887;28;20036;-64
2022/06/30 15:33:08;;;;;;;7.30;3.08;;;;;;;29.38;59.52;99725.75;8338926;28;20048;-64
2022/06/30 15:37:08;;;;;;;6.20;3.43;;;;;;;28.98;61.47;99709.09;8327544;28;20115;-64
2022/06/30 15:41:09;;;;;;;5.05;3.15;;;;;;;28.54;61.69;99696.84;8335466;28;20269;-63
2022/06/30 15:45:11;;;;;;;8.18;2.63;;;;;;;28.29;63.51;99724.59;8337970;28;20068;-63
2022/06/30 15:49:12;;;;;;;14.50;3.60;;;;;;;28.09;62.02;99747.63;8329933;28;20493;-63
2022/06/30 15:53:13;;;;;;;15.90;3.10;;;;;;;27.20;67.92;99781.25;8338853;28;20079;-64
2022/06/30 15:57:16;;;;;;;18.63;4.03;;;;;;;25.98;75.05;99772.78;8352033;28;20090;-63
2022/06/30 16:01:17;;;;;;;16.38;5.93;;;;;;;24.71;85.30;99804.31;8335088;28;20492;-63
2022/06/30 16:05:18;;;;;;;15.40;6.18;;;;;;;25.12;84.07;99901.84;8328407;28;20083;-62
2022/06/30 16:09:18;;;;;;;16.00;8.38;;;;;;;23.85;97.93;99991.38;8341319;28;20041;-62
2022/06/30 16:13:19;;;;;;;21.02;10.43;;;;;;;22.84;100.00;100015.41;8349392;28;20047;-62
2022/06/30 16:17:19;;;;;;;44.47;12.77;;;;;;;21.07;100.00;99976.00;8354939;28;20047;-64
2022/06/30 16:21:20;;;;;;;20.85;10.88;;;;;;;20.00;100.00;99941.16;8355854;28;20040;-63
2022/06/30 16:25:21;;;;;;;20.57;11.90;;;;;;;19.77;100.00;99960.84;8357033;28;20041;-64
2022/06/30 16:29:21;;;;;;;17.90;8.85;;;;;;;19.53;100.00;99931.31;8361002;28;20626;-64
2022/06/30 16:33:22;;;;;;;10.73;6.63;;;;;;;19.25;100.00;99945.19;8341579;28;20037;-64
2022/06/30 16:37:23;;;;;;;13.85;6.72;;;;;;;19.13;100.00;99987.97;8354163;28;20037;-65
2022/06/30 16:41:23;;;;;;;10.75;5.65;;;;;;;19.00;100.00;100042.75;8350746;28;20040;-65
2022/06/30 16:45:24;;;;;;;11.82;6.38;;;;;;;18.95;100.00;100030.75;8340817;28;20501;-65
2022/06/30 16:49:24;;;;;;;22.33;8.50;;;;;;;18.59;100.00;100041.97;8327567;28;20451;-65
2022/06/30 16:53:27;;;;;;;17.92;9.57;;;;;;;18.51;100.00;100053.09;8343304;28;20647;-65
2022/06/30 16:57:28;;;;;;;13.35;6.47;;;;;;;18.55;100.00;100050.81;8347019;28;20064;-65
2022/06/30 17:01:28;;;;;;;17.00;6.43;;;;;;;18.74;100.00;100045.44;8328219;28;20040;-65
2022/06/30 17:05:29;;;;;;;17.95;7.45;;;;;;;18.83;100.00;100026.91;8314642;28;20045;-65
2022/06/30 17:09:29;;;;;;;17.37;7.37;;;;;;;18.97;100.00;100017.69;8322295;28;20044;-64
2022/06/30 17:13:30;;;;;;;12.18;6.30;;;;;;;18.94;100.00;100040.84;8339387;28;20355;-64
2022/06/30 17:17:30;;;;;;;10.13;6.25;;;;;;;19.09;100.00;100066.19;8348558;28;20041;-63
2022/06/30 17:21:30;;;;;;;14.43;6.28;;;;;;;19.17;100.00;100089.81;8351803;28;20420;-63
2022/06/30 17:25:31;;;;;;;9.98;6.07;;;;;;;19.12;99.71;100131.56;8336969;28;20040;-63
2022/06/30 17:29:31;;;;;;;12.50;4.78;;;;;;;18.85;98.70;100135.22;8332758;28;20052;-64
2022/06/30 17:33:32;;;;;;;8.70;5.22;;;;;;;18.66;100.00;100152.38;8329563;28;20041;-63
2022/06/30 17:37:32;;;;;;;5.95;4.78;;;;;;;18.47;100.00;100160.47;8332932;28;20060;-64
2022/06/30 17:41:33;;;;;;;11.23;5.07;;;;;;;18.33;100.00;100172.34;8327858;28;20489;-63
2022/06/30 17:45:33;;;;;;;9.57;5.13;;;;;;;18.14;100.00;100182.06;8324289;28;20045;-63
2022/06/30 17:49:34;;;;;;;6.43;3.97;;;;;;;17.98;100.00;100222.53;8316476;28;20289;-63
2022/06/30 17:53:34;;;;;;;5.60;4.53;;;;;;;17.96;100.00;100241.88;8332040;28;20048;-63
2022/06/30 17:57:35;;;;;;;7.80;4.03;;;;;;;17.96;100.00;100241.88;8334425;28;20127;-63
2022/06/30 18:01:36;;;;;;;9.07;4.85;;;;;;;17.97;100.00;100246.31;8341619;28;20564;-64
2022/06/30 18:05:38;;;;;;;7.30;5.18;;;;;;;17.98;100.00;100242.53;8341695;28;20052;-64
2022/06/30 18:13:59;;;;;;;8.35;5.22;;;;;;;17.64;99.00;100217.75;8319321;28;20083;-63
2022/06/30 18:18:00;;;;;;;5.87;4.80;;;;;;;17.43;98.65;100245.06;8344673;28;20043;-63
2022/06/30 18:22:00;;;;;;;8.55;4.80;;;;;;;17.37;100.00;100256.72;8396677;27;20283;-63
2022/06/30 18:26:02;;;;;;;8.38;5.65;;;;;;;17.19;100.00;100264.44;8367733;28;20047;-63
2022/06/30 18:30:03;;;;;;;7.80;4.72;;;;;;;16.98;100.00;100278.88;8364839;28;20127;-64
2022/06/30 18:34:05;;;;;;;11.70;5.25;;;;;;;16.90;100.00;100261.72;8362899;28;20036;-64
2022/06/30 18:38:05;;;;;;;9.48;5.18;;;;;;;16.58;100.00;100232.88;8364797;28;20037;-64
2022/06/30 18:42:06;;;;;;;7.07;4.88;;;;;;;16.37;100.00;100218.19;8365355;28;20071;-64
2022/06/30 18:46:07;;;;;;;9.73;5.03;;;;;;;16.48;100.00;100258.72;8325953;28;20253;-64